Hannah C — WDH2947 — position and weather

sailwx.info

Track history (hours):
 
Tides and Currents Weather Stations Pressure Air Temp Water Temp Dewpoint Dewpoint Depression Visibility Wind Speed Wind Dir Waves Ship Positions

Hannah C

Owner: REC Marine Logistics, LLC, Galliano, LA. More information available from US FCC via Universal Licensing System and Coast Guard Vessel Documentation Center.

Last reported at 2018-Feb-20 17:42 UTC. Time now 2018-Feb-23 12:42 UTC.
Position N 29°49' W 093°20'.

Length 48 m; draft 3 m.

Type: Cargo ship. MMSI: 367602790.

Date/timePositionNaut miles runAvg speedWind from/ knotsBaromVisibWave heightAir tempDewpointWater temp
2018-Feb-20 17:42N 29°49' W 093°20'2 0.2
2018-Feb-20 10:05N 29°48' W 093°20'0 0.0
2018-Feb-20 09:46N 29°48' W 093°20'0 0.0
2018-Feb-20 09:29N 29°48' W 093°20'0 0.0
2018-Feb-20 08:31N 29°48' W 093°20'0 0.0
2018-Feb-20 08:28N 29°48' W 093°20'0 0.0
2018-Feb-20 08:00N 29°48' W 093°20'0 0.0
2018-Feb-20 07:25N 29°48' W 093°20'0 0.0
2018-Feb-20 06:56N 29°48' W 093°20'0 0.0
2018-Feb-20 06:14N 29°48' W 093°20'0 0.0
2018-Feb-20 06:00N 29°48' W 093°20'0 0.0
2018-Feb-20 05:25N 29°48' W 093°20'2 2.9
2018-Feb-20 04:53N 29°49' W 093°20'0 0.0
2018-Feb-20 04:09N 29°49' W 093°20'97 1.9
2018-Feb-18 01:40N 28°22' W 092°33'96 3.7
2018-Feb-16 23:40N 29°48' W 093°21'2 1.7
2018-Feb-16 22:34N 29°49' W 093°20'0 0.0
2018-Feb-16 19:53N 29°49' W 093°20'0 0.1
2018-Feb-16 14:56N 29°49' W 093°21'0 0.0
2018-Feb-16 10:13N 29°49' W 093°20'2 6.5
2018-Feb-16 09:59N 29°48' W 093°21'7 9.9
2018-Feb-16 09:15N 29°41' W 093°21'310.8
2018-Feb-16 09:00N 29°38' W 093°22'610.7
2018-Feb-16 08:28N 29°32' W 093°24'4010.9
2018-Feb-16 04:45N 28°54' W 093°38'1911.0
2018-Feb-16 03:01N 28°36' W 093°44'010.8
2018-Feb-16 03:00N 28°36' W 093°44'610.9
2018-Feb-16 02:27N 28°30' W 093°46'1310.6
2018-Feb-16 01:10N 28°17' W 093°50'  
2018-Feb-13 17:20N 29°49' W 093°21'2 0.9
2018-Feb-13 15:36N 29°48' W 093°20'0 0.0
2018-Feb-13 12:18N 29°48' W 093°20'0 0.0
2018-Feb-13 10:53N 29°48' W 093°20'  
Track history (hours):
 
Tides and Currents Weather Stations Pressure Air Temp Water Temp Dewpoint Dewpoint Depression Visibility Wind Speed Wind Dir Waves Ship Positions

Hannah C

Owner: REC Marine Logistics, LLC, Galliano, LA. More information available from US FCC via Universal Licensing System and Coast Guard Vessel Documentation Center.

Last reported at 2018-Feb-20 17:42 UTC. Time now 2018-Feb-23 12:42 UTC.
Position N 29°49' W 093°20'.

Length 48 m; draft 3 m.

Type: Cargo ship. MMSI: 367602790.

Date/timePositionNaut miles runAvg speedWind from/ knotsBaromVisibWave heightAir tempDewpointWater temp
2018-Feb-20 17:42N 29°49' W 093°20'2 0.2
2018-Feb-20 10:05N 29°48' W 093°20'0 0.0
2018-Feb-20 09:46N 29°48' W 093°20'0 0.0
2018-Feb-20 09:29N 29°48' W 093°20'0 0.0
2018-Feb-20 08:31N 29°48' W 093°20'0 0.0
2018-Feb-20 08:28N 29°48' W 093°20'0 0.0
2018-Feb-20 08:00N 29°48' W 093°20'0 0.0
2018-Feb-20 07:25N 29°48' W 093°20'0 0.0
2018-Feb-20 06:56N 29°48' W 093°20'0 0.0
2018-Feb-20 06:14N 29°48' W 093°20'0 0.0
2018-Feb-20 06:00N 29°48' W 093°20'0 0.0
2018-Feb-20 05:25N 29°48' W 093°20'2 2.9
2018-Feb-20 04:53N 29°49' W 093°20'0 0.0
2018-Feb-20 04:09N 29°49' W 093°20'97 1.9
2018-Feb-18 01:40N 28°22' W 092°33'96 3.7
2018-Feb-16 23:40N 29°48' W 093°21'2 1.7
2018-Feb-16 22:34N 29°49' W 093°20'0 0.0
2018-Feb-16 19:53N 29°49' W 093°20'0 0.1
2018-Feb-16 14:56N 29°49' W 093°21'0 0.0
2018-Feb-16 10:13N 29°49' W 093°20'2 6.5
2018-Feb-16 09:59N 29°48' W 093°21'7 9.9
2018-Feb-16 09:15N 29°41' W 093°21'310.8
2018-Feb-16 09:00N 29°38' W 093°22'610.7
2018-Feb-16 08:28N 29°32' W 093°24'4010.9
2018-Feb-16 04:45N 28°54' W 093°38'1911.0
2018-Feb-16 03:01N 28°36' W 093°44'010.8
2018-Feb-16 03:00N 28°36' W 093°44'610.9
2018-Feb-16 02:27N 28°30' W 093°46'1310.6
2018-Feb-16 01:10N 28°17' W 093°50'  
2018-Feb-13 17:20N 29°49' W 093°21'2 0.9
2018-Feb-13 15:36N 29°48' W 093°20'0 0.0
2018-Feb-13 12:18N 29°48' W 093°20'0 0.0
2018-Feb-13 10:53N 29°48' W 093°20'  

Dump ship's entire track history